sensor_id;sensor_type;location;lat;lon;timestamp;temperature;humidity
12452;DHT22;6291;48.924;12.204;2022-07-29T00:04:40;20.90;79.10
12452;DHT22;6291;48.924;12.204;2022-07-29T00:09:43;20.90;79.80
12452;DHT22;6291;48.924;12.204;2022-07-29T00:14:55;21.20;77.80
12452;DHT22;6291;48.924;12.204;2022-07-29T00:19:59;21.10;78.90
12452;DHT22;6291;48.924;12.204;2022-07-29T00:25:02;21.10;77.00
12452;DHT22;6291;48.924;12.204;2022-07-29T00:30:08;21.10;77.00
12452;DHT22;6291;48.924;12.204;2022-07-29T00:35:11;20.90;78.20
12452;DHT22;6291;48.924;12.204;2022-07-29T00:40:34;20.30;82.80
12452;DHT22;6291;48.924;12.204;2022-07-29T00:45:42;20.20;82.60
12452;DHT22;6291;48.924;12.204;2022-07-29T00:50:46;19.70;84.80
12452;DHT22;6291;48.924;12.204;2022-07-29T00:55:49;19.40;86.90
12452;DHT22;6291;48.924;12.204;2022-07-29T01:00:54;19.30;89.50
12452;DHT22;6291;48.924;12.204;2022-07-29T01:05:58;19.50;90.00
12452;DHT22;6291;48.924;12.204;2022-07-29T01:11:03;19.60;89.80
12452;DHT22;6291;48.924;12.204;2022-07-29T01:16:13;19.60;90.10
12452;DHT22;6291;48.924;12.204;2022-07-29T01:21:46;19.50;90.80
12452;DHT22;6291;48.924;12.204;2022-07-29T01:26:59;19.60;90.70
12452;DHT22;6291;48.924;12.204;2022-07-29T01:32:12;19.60;90.80
12452;DHT22;6291;48.924;12.204;2022-07-29T01:37:33;19.40;91.10
12452;DHT22;6291;48.924;12.204;2022-07-29T01:42:42;19.30;91.40
12452;DHT22;6291;48.924;12.204;2022-07-29T01:47:54;19.30;91.30
12452;DHT22;6291;48.924;12.204;2022-07-29T01:53:02;19.50;91.20
12452;DHT22;6291;48.924;12.204;2022-07-29T01:58:07;19.50;91.10
12452;DHT22;6291;48.924;12.204;2022-07-29T02:03:13;19.60;91.10
12452;DHT22;6291;48.924;12.204;2022-07-29T02:08:19;23.40;92.00
12452;DHT22;6291;48.924;12.204;2022-07-29T02:13:24;19.80;90.20
12452;DHT22;6291;48.924;12.204;2022-07-29T02:18:30;19.80;90.00
12452;DHT22;6291;48.924;12.204;2022-07-29T02:23:35;19.80;89.50
12452;DHT22;6291;48.924;12.204;2022-07-29T02:28:55;19.90;89.50
12452;DHT22;6291;48.924;12.204;2022-07-29T02:34:02;20.00;89.10
12452;DHT22;6291;48.924;12.204;2022-07-29T02:39:07;19.90;90.20
12452;DHT22;6291;48.924;12.204;2022-07-29T02:44:14;19.50;91.20
12452;DHT22;6291;48.924;12.204;2022-07-29T02:49:27;19.60;91.40
12452;DHT22;6291;48.924;12.204;2022-07-29T02:54:44;22.20;92.20
12452;DHT22;6291;48.924;12.204;2022-07-29T02:59:51;19.50;91.90
12452;DHT22;6291;48.924;12.204;2022-07-29T03:04:57;19.20;92.20
12452;DHT22;6291;48.924;12.204;2022-07-29T03:10:03;19.00;93.40
12452;DHT22;6291;48.924;12.204;2022-07-29T03:15:14;18.90;94.50
12452;DHT22;6291;48.924;12.204;2022-07-29T03:20:19;19.00;94.20
12452;DHT22;6291;48.924;12.204;2022-07-29T03:25:22;19.10;94.20
12452;DHT22;6291;48.924;12.204;2022-07-29T03:30:25;19.10;94.40
12452;DHT22;6291;48.924;12.204;2022-07-29T03:35:31;19.10;94.60
12452;DHT22;6291;48.924;12.204;2022-07-29T03:40:38;18.70;95.90
12452;DHT22;6291;48.924;12.204;2022-07-29T03:45:47;18.40;99.50
12452;DHT22;6291;48.924;12.204;2022-07-29T03:50:54;18.50;98.90
12452;DHT22;6291;48.924;12.204;2022-07-29T03:55:59;18.40;99.70
12452;DHT22;6291;48.924;12.204;2022-07-29T04:01:04;18.30;99.90
12452;DHT22;6291;48.924;12.204;2022-07-29T04:06:09;18.30;99.90
12452;DHT22;6291;48.924;12.204;2022-07-29T04:11:13;18.50;99.90
12452;DHT22;6291;48.924;12.204;2022-07-29T04:16:16;18.40;99.90
12452;DHT22;6291;48.924;12.204;2022-07-29T04:21:21;18.30;99.90
12452;DHT22;6291;48.924;12.204;2022-07-29T04:26:24;18.30;99.90
12452;DHT22;6291;48.924;12.204;2022-07-29T04:31:28;18.30;99.90
12452;DHT22;6291;48.924;12.204;2022-07-29T04:36:32;18.20;99.90
12452;DHT22;6291;48.924;12.204;2022-07-29T04:41:36;18.30;99.90
12452;DHT22;6291;48.924;12.204;2022-07-29T04:46:39;18.70;99.90
12452;DHT22;6291;48.924;12.204;2022-07-29T04:51:44;18.70;99.90
12452;DHT22;6291;48.924;12.204;2022-07-29T04:56:47;18.40;99.90
12452;DHT22;6291;48.924;12.204;2022-07-29T05:01:50;18.40;99.90
12452;DHT22;6291;48.924;12.204;2022-07-29T05:06:55;18.60;99.90
12452;DHT22;6291;48.924;12.204;2022-07-29T05:11:58;18.80;99.90
12452;DHT22;6291;48.924;12.204;2022-07-29T05:17:02;18.90;99.90
12452;DHT22;6291;48.924;12.204;2022-07-29T05:22:06;18.90;99.90
12452;DHT22;6291;48.924;12.204;2022-07-29T05:27:10;19.20;99.90
12452;DHT22;6291;48.924;12.204;2022-07-29T05:32:13;19.40;99.90
12452;DHT22;6291;48.924;12.204;2022-07-29T05:37:18;19.40;99.90
12452;DHT22;6291;48.924;12.204;2022-07-29T05:42:21;19.20;99.90
12452;DHT22;6291;48.924;12.204;2022-07-29T05:47:25;19.40;99.90
12452;DHT22;6291;48.924;12.204;2022-07-29T05:52:29;19.60;99.90
12452;DHT22;6291;48.924;12.204;2022-07-29T05:57:33;19.70;99.90
12452;DHT22;6291;48.924;12.204;2022-07-29T06:02:36;19.70;99.90
12452;DHT22;6291;48.924;12.204;2022-07-29T06:07:41;19.80;99.90
12452;DHT22;6291;48.924;12.204;2022-07-29T06:12:51;19.90;99.90
12452;DHT22;6291;48.924;12.204;2022-07-29T06:17:55;20.00;99.90
12452;DHT22;6291;48.924;12.204;2022-07-29T06:23:02;20.50;99.80
12452;DHT22;6291;48.924;12.204;2022-07-29T06:28:06;20.90;98.60
12452;DHT22;6291;48.924;12.204;2022-07-29T06:33:14;19.00;95.80
12452;DHT22;6291;48.924;12.204;2022-07-29T06:38:20;20.80;96.60
12452;DHT22;6291;48.924;12.204;2022-07-29T06:43:33;21.50;95.00
12452;DHT22;6291;48.924;12.204;2022-07-29T06:48:53;26.00;94.10
12452;DHT22;6291;48.924;12.204;2022-07-29T06:53:58;22.20;91.80
12452;DHT22;6291;48.924;12.204;2022-07-29T06:59:04;22.10;91.80
12452;DHT22;6291;48.924;12.204;2022-07-29T07:04:09;22.10;92.30
12452;DHT22;6291;48.924;12.204;2022-07-29T07:09:13;21.80;91.40
12452;DHT22;6291;48.924;12.204;2022-07-29T07:14:17;21.50;91.80
12452;DHT22;6291;48.924;12.204;2022-07-29T07:19:21;22.30;91.00
12452;DHT22;6291;48.924;12.204;2022-07-29T07:24:26;23.90;88.60
12452;DHT22;6291;48.924;12.204;2022-07-29T07:29:29;24.40;84.70
12452;DHT22;6291;48.924;12.204;2022-07-29T07:34:33;26.00;75.60
12452;DHT22;6291;48.924;12.204;2022-07-29T07:39:37;26.30;72.20
12452;DHT22;6291;48.924;12.204;2022-07-29T07:44:41;27.10;66.90
12452;DHT22;6291;48.924;12.204;2022-07-29T07:50:05;26.60;68.90
12452;DHT22;6291;48.924;12.204;2022-07-29T07:55:10;26.70;67.40
12452;DHT22;6291;48.924;12.204;2022-07-29T08:00:14;23.30;73.70
12452;DHT22;6291;48.924;12.204;2022-07-29T08:05:19;24.80;71.70
12452;DHT22;6291;48.924;12.204;2022-07-29T08:10:24;25.10;74.00
12452;DHT22;6291;48.924;12.204;2022-07-29T08:15:45;24.70;75.20
12452;DHT22;6291;48.924;12.204;2022-07-29T08:20:49;25.20;72.40
12452;DHT22;6291;48.924;12.204;2022-07-29T08:25:53;26.70;68.50
12452;DHT22;6291;48.924;12.204;2022-07-29T08:30:57;28.20;67.80
12452;DHT22;6291;48.924;12.204;2022-07-29T08:36:00;30.10;59.00
12452;DHT22;6291;48.924;12.204;2022-07-29T08:41:05;30.60;57.10
12452;DHT22;6291;48.924;12.204;2022-07-29T08:46:09;28.90;59.20
12452;DHT22;6291;48.924;12.204;2022-07-29T08:51:13;28.80;60.00
12452;DHT22;6291;48.924;12.204;2022-07-29T08:56:19;29.60;58.10
12452;DHT22;6291;48.924;12.204;2022-07-29T09:01:24;29.90;56.50
12452;DHT22;6291;48.924;12.204;2022-07-29T09:06:39;29.70;57.50
12452;DHT22;6291;48.924;12.204;2022-07-29T09:11:46;30.00;56.00
12452;DHT22;6291;48.924;12.204;2022-07-29T09:16:54;30.40;55.40
12452;DHT22;6291;48.924;12.204;2022-07-29T09:21:59;30.90;54.60
12452;DHT22;6291;48.924;12.204;2022-07-29T09:27:11;30.00;54.80
12452;DHT22;6291;48.924;12.204;2022-07-29T09:32:14;31.70;52.10
12452;DHT22;6291;48.924;12.204;2022-07-29T09:37:26;31.70;50.20
12452;DHT22;6291;48.924;12.204;2022-07-29T09:42:31;29.10;55.20
12452;DHT22;6291;48.924;12.204;2022-07-29T09:47:41;29.30;55.70
12452;DHT22;6291;48.924;12.204;2022-07-29T09:52:48;28.50;59.60
12452;DHT22;6291;48.924;12.204;2022-07-29T09:57:53;31.10;51.80
12452;DHT22;6291;48.924;12.204;2022-07-29T10:03:00;30.30;55.10
12452;DHT22;6291;48.924;12.204;2022-07-29T10:08:05;31.90;50.70
12452;DHT22;6291;48.924;12.204;2022-07-29T10:13:12;33.20;49.10
12452;DHT22;6291;48.924;12.204;2022-07-29T10:18:17;34.10;45.70
12452;DHT22;6291;48.924;12.204;2022-07-29T10:23:21;34.00;45.50
12452;DHT22;6291;48.924;12.204;2022-07-29T10:28:27;33.10;47.80
12452;DHT22;6291;48.924;12.204;2022-07-29T10:33:41;30.40;53.10
12452;DHT22;6291;48.924;12.204;2022-07-29T10:38:53;30.30;53.50
12452;DHT22;6291;48.924;12.204;2022-07-29T10:44:02;31.90;50.80
12452;DHT22;6291;48.924;12.204;2022-07-29T10:49:09;31.90;49.30
12452;DHT22;6291;48.924;12.204;2022-07-29T10:54:16;31.30;50.50
12452;DHT22;6291;48.924;12.204;2022-07-29T10:59:27;28.90;56.00
12452;DHT22;6291;48.924;12.204;2022-07-29T11:04:59;27.10;60.00
12452;DHT22;6291;48.924;12.204;2022-07-29T11:10:23;27.30;60.50
12452;DHT22;6291;48.924;12.204;2022-07-29T11:15:52;28.70;56.60
12452;DHT22;6291;48.924;12.204;2022-07-29T11:20:57;29.20;56.00
12452;DHT22;6291;48.924;12.204;2022-07-29T11:26:20;30.10;55.10
12452;DHT22;6291;48.924;12.204;2022-07-29T11:31:36;30.30;53.30
12452;DHT22;6291;48.924;12.204;2022-07-29T11:42:39;29.80;54.90
12452;DHT22;6291;48.924;12.204;2022-07-29T11:47:52;29.60;54.30
12452;DHT22;6291;48.924;12.204;2022-07-29T11:53:00;29.10;55.00
12452;DHT22;6291;48.924;12.204;2022-07-29T11:58:10;27.90;54.70
12452;DHT22;6291;48.924;12.204;2022-07-29T12:03:25;28.60;57.00
12452;DHT22;6291;48.924;12.204;2022-07-29T12:08:40;28.20;57.50
12452;DHT22;6291;48.924;12.204;2022-07-29T12:13:46;27.90;56.90
12452;DHT22;6291;48.924;12.204;2022-07-29T12:19:02;28.20;57.80
12452;DHT22;6291;48.924;12.204;2022-07-29T12:24:07;28.90;56.20
12452;DHT22;6291;48.924;12.204;2022-07-29T12:29:15;30.20;53.80
12452;DHT22;6291;48.924;12.204;2022-07-29T12:34:38;30.90;52.30
12452;DHT22;6291;48.924;12.204;2022-07-29T12:39:43;30.00;52.60
12452;DHT22;6291;48.924;12.204;2022-07-29T12:44:49;31.60;50.10
12452;DHT22;6291;48.924;12.204;2022-07-29T12:50:09;31.00;50.00
12452;DHT22;6291;48.924;12.204;2022-07-29T12:55:14;30.70;49.70
12452;DHT22;6291;48.924;12.204;2022-07-29T13:00:22;29.80;51.10
12452;DHT22;6291;48.924;12.204;2022-07-29T13:05:41;29.00;52.60
12452;DHT22;6291;48.924;12.204;2022-07-29T13:10:50;29.40;52.90
12452;DHT22;6291;48.924;12.204;2022-07-29T13:16:05;30.00;49.90
12452;DHT22;6291;48.924;12.204;2022-07-29T13:21:15;29.90;50.70
12452;DHT22;6291;48.924;12.204;2022-07-29T13:26:19;29.20;51.70
12452;DHT22;6291;48.924;12.204;2022-07-29T13:31:23;28.80;52.10
12452;DHT22;6291;48.924;12.204;2022-07-29T13:36:29;29.60;52.40
12452;DHT22;6291;48.924;12.204;2022-07-29T13:41:33;30.70;49.60
12452;DHT22;6291;48.924;12.204;2022-07-29T13:46:37;31.00;49.30
12452;DHT22;6291;48.924;12.204;2022-07-29T13:51:43;30.60;48.80
12452;DHT22;6291;48.924;12.204;2022-07-29T13:56:46;30.10;49.30
12452;DHT22;6291;48.924;12.204;2022-07-29T14:01:50;29.70;50.50
12452;DHT22;6291;48.924;12.204;2022-07-29T14:06:55;29.90;49.60
12452;DHT22;6291;48.924;12.204;2022-07-29T14:12:04;29.90;48.20
12452;DHT22;6291;48.924;12.204;2022-07-29T14:17:08;29.20;49.10
12452;DHT22;6291;48.924;12.204;2022-07-29T14:22:13;29.20;49.60
12452;DHT22;6291;48.924;12.204;2022-07-29T14:27:17;27.70;49.50
12452;DHT22;6291;48.924;12.204;2022-07-29T14:32:38;28.70;50.90
12452;DHT22;6291;48.924;12.204;2022-07-29T14:37:43;28.30;51.40
12452;DHT22;6291;48.924;12.204;2022-07-29T14:42:47;27.90;53.30
12452;DHT22;6291;48.924;12.204;2022-07-29T14:47:51;27.60;55.00
12452;DHT22;6291;48.924;12.204;2022-07-29T14:53:00;27.20;58.30
12452;DHT22;6291;48.924;12.204;2022-07-29T14:58:04;26.70;65.70
12452;DHT22;6291;48.924;12.204;2022-07-29T15:03:15;26.80;67.80
12452;DHT22;6291;48.924;12.204;2022-07-29T15:08:26;26.70;69.10
12452;DHT22;6291;48.924;12.204;2022-07-29T15:13:32;26.50;67.80
12452;DHT22;6291;48.924;12.204;2022-07-29T15:18:35;24.60;65.40
12452;DHT22;6291;48.924;12.204;2022-07-29T15:23:41;27.50;65.60
12452;DHT22;6291;48.924;12.204;2022-07-29T15:28:44;27.00;65.80
12452;DHT22;6291;48.924;12.204;2022-07-29T15:33:48;27.20;64.30
12452;DHT22;6291;48.924;12.204;2022-07-29T15:38:59;27.50;64.10
12452;DHT22;6291;48.924;12.204;2022-07-29T15:44:03;27.50;65.60
12452;DHT22;6291;48.924;12.204;2022-07-29T15:49:07;27.70;63.70
12452;DHT22;6291;48.924;12.204;2022-07-29T15:54:11;27.70;63.60
12452;DHT22;6291;48.924;12.204;2022-07-29T15:59:15;27.50;65.00
12452;DHT22;6291;48.924;12.204;2022-07-29T16:04:23;26.90;65.30
12452;DHT22;6291;48.924;12.204;2022-07-29T16:09:28;26.80;66.50
12452;DHT22;6291;48.924;12.204;2022-07-29T16:14:32;26.30;68.70
12452;DHT22;6291;48.924;12.204;2022-07-29T16:19:35;26.00;68.50
12452;DHT22;6291;48.924;12.204;2022-07-29T16:24:40;25.80;71.40
12452;DHT22;6291;48.924;12.204;2022-07-29T16:29:43;25.70;73.00
12452;DHT22;6291;48.924;12.204;2022-07-29T16:34:49;25.50;74.70
12452;DHT22;6291;48.924;12.204;2022-07-29T16:39:53;25.50;75.80
12452;DHT22;6291;48.924;12.204;2022-07-29T16:44:57;25.40;76.30
12452;DHT22;6291;48.924;12.204;2022-07-29T16:50:00;25.50;76.00
12452;DHT22;6291;48.924;12.204;2022-07-29T16:55:06;25.50;77.20
12452;DHT22;6291;48.924;12.204;2022-07-29T17:00:11;25.40;75.30
12452;DHT22;6291;48.924;12.204;2022-07-29T17:05:15;25.60;72.20
12452;DHT22;6291;48.924;12.204;2022-07-29T17:10:19;25.40;70.80
12452;DHT22;6291;48.924;12.204;2022-07-29T17:15:24;25.20;70.80
12452;DHT22;6291;48.924;12.204;2022-07-29T17:20:27;25.10;70.10
12452;DHT22;6291;48.924;12.204;2022-07-29T17:25:32;24.90;69.60
12452;DHT22;6291;48.924;12.204;2022-07-29T17:30:35;24.90;69.70
12452;DHT22;6291;48.924;12.204;2022-07-29T17:35:38;24.90;68.60
12452;DHT22;6291;48.924;12.204;2022-07-29T17:41:00;24.80;66.60
12452;DHT22;6291;48.924;12.204;2022-07-29T17:46:10;24.60;66.10
12452;DHT22;6291;48.924;12.204;2022-07-29T17:51:13;24.50;66.70
12452;DHT22;6291;48.924;12.204;2022-07-29T17:56:18;24.30;68.00
12452;DHT22;6291;48.924;12.204;2022-07-29T18:01:22;24.00;70.00
12452;DHT22;6291;48.924;12.204;2022-07-29T18:06:25;23.70;71.80
12452;DHT22;6291;48.924;12.204;2022-07-29T18:11:30;23.50;73.00
12452;DHT22;6291;48.924;12.204;2022-07-29T18:16:33;23.50;72.80
12452;DHT22;6291;48.924;12.204;2022-07-29T18:21:36;23.40;72.80
12452;DHT22;6291;48.924;12.204;2022-07-29T18:26:57;23.40;73.70
12452;DHT22;6291;48.924;12.204;2022-07-29T18:32:01;23.20;74.60
12452;DHT22;6291;48.924;12.204;2022-07-29T18:37:04;23.10;75.70
12452;DHT22;6291;48.924;12.204;2022-07-29T18:42:09;23.10;75.90
12452;DHT22;6291;48.924;12.204;2022-07-29T18:47:13;22.90;76.20
12452;DHT22;6291;48.924;12.204;2022-07-29T18:52:16;22.90;76.40
12452;DHT22;6291;48.924;12.204;2022-07-29T18:57:21;22.80;76.60
12452;DHT22;6291;48.924;12.204;2022-07-29T19:02:45;22.70;77.20
12452;DHT22;6291;48.924;12.204;2022-07-29T19:07:48;22.80;76.80
12452;DHT22;6291;48.924;12.204;2022-07-29T19:12:53;22.60;77.60
12452;DHT22;6291;48.924;12.204;2022-07-29T19:17:57;22.50;78.40
12452;DHT22;6291;48.924;12.204;2022-07-29T19:23:02;22.20;80.40
12452;DHT22;6291;48.924;12.204;2022-07-29T19:28:07;21.80;82.80
12452;DHT22;6291;48.924;12.204;2022-07-29T19:33:10;22.00;82.90
12452;DHT22;6291;48.924;12.204;2022-07-29T19:38:16;21.80;84.30
12452;DHT22;6291;48.924;12.204;2022-07-29T19:43:21;19.10;85.00
12452;DHT22;6291;48.924;12.204;2022-07-29T19:48:44;21.30;90.00
12452;DHT22;6291;48.924;12.204;2022-07-29T19:53:48;21.20;91.30
12452;DHT22;6291;48.924;12.204;2022-07-29T19:58:53;21.00;92.70
12452;DHT22;6291;48.924;12.204;2022-07-29T20:03:56;21.00;93.30
12452;DHT22;6291;48.924;12.204;2022-07-29T20:08:59;20.90;94.00
12452;DHT22;6291;48.924;12.204;2022-07-29T20:14:04;20.90;94.70
12452;DHT22;6291;48.924;12.204;2022-07-29T20:19:07;20.60;96.70
12452;DHT22;6291;48.924;12.204;2022-07-29T20:24:11;18.00;99.00
12452;DHT22;6291;48.924;12.204;2022-07-29T20:29:16;20.40;99.90
12452;DHT22;6291;48.924;12.204;2022-07-29T20:34:19;20.40;99.90
12452;DHT22;6291;48.924;12.204;2022-07-29T20:39:23;20.30;99.90
12452;DHT22;6291;48.924;12.204;2022-07-29T20:44:28;20.30;99.90
12452;DHT22;6291;48.924;12.204;2022-07-29T20:49:31;20.30;99.90
12452;DHT22;6291;48.924;12.204;2022-07-29T20:54:35;20.40;99.90
12452;DHT22;6291;48.924;12.204;2022-07-29T20:59:40;20.40;99.90
12452;DHT22;6291;48.924;12.204;2022-07-29T21:04:46;20.40;99.90
12452;DHT22;6291;48.924;12.204;2022-07-29T21:09:50;17.40;99.90
12452;DHT22;6291;48.924;12.204;2022-07-29T21:14:54;20.00;99.90
12452;DHT22;6291;48.924;12.204;2022-07-29T21:19:58;19.70;99.90
12452;DHT22;6291;48.924;12.204;2022-07-29T21:25:02;19.50;99.90
12452;DHT22;6291;48.924;12.204;2022-07-29T21:30:08;19.30;99.90
12452;DHT22;6291;48.924;12.204;2022-07-29T21:35:12;19.10;99.90
12452;DHT22;6291;48.924;12.204;2022-07-29T21:40:37;18.90;99.90
12452;DHT22;6291;48.924;12.204;2022-07-29T21:45:41;18.60;99.90
12452;DHT22;6291;48.924;12.204;2022-07-29T21:50:49;18.50;99.90
12452;DHT22;6291;48.924;12.204;2022-07-29T21:55:52;18.50;99.90
12452;DHT22;6291;48.924;12.204;2022-07-29T22:00:57;18.40;99.90
12452;DHT22;6291;48.924;12.204;2022-07-29T22:06:01;18.30;99.90
12452;DHT22;6291;48.924;12.204;2022-07-29T22:11:04;18.30;99.90
12452;DHT22;6291;48.924;12.204;2022-07-29T22:16:09;18.20;99.90
12452;DHT22;6291;48.924;12.204;2022-07-29T22:21:16;18.20;99.90
12452;DHT22;6291;48.924;12.204;2022-07-29T22:26:19;18.20;99.90
12452;DHT22;6291;48.924;12.204;2022-07-29T22:31:24;18.10;99.90
12452;DHT22;6291;48.924;12.204;2022-07-29T22:36:27;18.10;99.90
12452;DHT22;6291;48.924;12.204;2022-07-29T22:41:30;18.10;99.90
12452;DHT22;6291;48.924;12.204;2022-07-29T22:46:35;18.10;99.90
12452;DHT22;6291;48.924;12.204;2022-07-29T22:51:38;18.10;99.90
12452;DHT22;6291;48.924;12.204;2022-07-29T22:56:42;18.10;99.90
12452;DHT22;6291;48.924;12.204;2022-07-29T23:01:46;18.10;99.90
12452;DHT22;6291;48.924;12.204;2022-07-29T23:06:50;18.10;99.90
12452;DHT22;6291;48.924;12.204;2022-07-29T23:11:53;18.10;99.90
12452;DHT22;6291;48.924;12.204;2022-07-29T23:16:58;18.10;99.90
12452;DHT22;6291;48.924;12.204;2022-07-29T23:22:01;18.00;99.90
12452;DHT22;6291;48.924;12.204;2022-07-29T23:27:05;18.10;99.90
12452;DHT22;6291;48.924;12.204;2022-07-29T23:32:09;18.10;99.90
12452;DHT22;6291;48.924;12.204;2022-07-29T23:37:13;18.00;99.90
12452;DHT22;6291;48.924;12.204;2022-07-29T23:42:16;17.90;99.90
12452;DHT22;6291;48.924;12.204;2022-07-29T23:47:21;17.80;99.90
12452;DHT22;6291;48.924;12.204;2022-07-29T23:52:24;17.80;99.90
12452;DHT22;6291;48.924;12.204;2022-07-29T23:57:27;17.70;99.90
